createdAt,value
2018-08-17T00:00:07.490Z,49.90
2018-08-17T00:02:35.788Z,49.90
2018-08-17T00:05:04.138Z,49.90
2018-08-17T00:07:32.388Z,49.90
2018-08-17T00:10:00.590Z,49.90
2018-08-17T00:12:28.756Z,50.00
2018-08-17T00:14:57.151Z,49.90
2018-08-17T00:17:25.397Z,49.90
2018-08-17T00:19:54.007Z,49.90
2018-08-17T00:22:22.271Z,50.00
2018-08-17T00:24:50.631Z,50.10
2018-08-17T00:27:19.500Z,50.10
2018-08-17T00:29:47.747Z,50.20
2018-08-17T00:32:16.012Z,50.20
2018-08-17T00:34:44.170Z,50.40
2018-08-17T00:37:12.614Z,50.30
2018-08-17T00:39:40.991Z,50.50
2018-08-17T00:42:09.154Z,50.50
2018-08-17T00:44:37.576Z,50.50
2018-08-17T00:47:06.187Z,50.70
2018-08-17T00:49:34.698Z,51.40
2018-08-17T00:52:03.229Z,50.70
2018-08-17T00:54:31.530Z,50.80
2018-08-17T00:56:59.990Z,50.70
2018-08-17T00:59:29.112Z,51.00
2018-08-17T01:01:57.536Z,51.00
2018-08-17T01:04:25.784Z,50.80
2018-08-17T01:06:54.402Z,51.00
2018-08-17T01:09:22.703Z,50.90
2018-08-17T01:11:51.190Z,50.60
2018-08-17T01:14:20.227Z,50.60
2018-08-17T01:16:48.605Z,50.40
2018-08-17T01:19:17.554Z,50.40
2018-08-17T01:21:46.120Z,50.40
2018-08-17T01:24:14.371Z,50.40
2018-08-17T01:26:42.666Z,50.10
2018-08-17T01:29:11.371Z,50.80
2018-08-17T01:31:39.654Z,50.40
2018-08-17T01:34:07.972Z,50.30
2018-08-17T01:36:36.190Z,50.00
2018-08-17T01:39:08.536Z,50.10
2018-08-17T01:41:36.900Z,49.90
2018-08-17T01:44:05.562Z,50.40
2018-08-17T01:46:33.937Z,50.30
2018-08-17T01:49:02.459Z,50.60
2018-08-17T01:51:31.894Z,51.20
2018-08-17T01:54:00.080Z,51.60
2018-08-17T01:56:28.448Z,51.90
2018-08-17T01:58:56.955Z,51.80
2018-08-17T02:01:25.203Z,52.10
2018-08-17T02:03:53.538Z,52.20
2018-08-17T02:06:21.898Z,52.00
2018-08-17T02:08:50.230Z,51.80
2018-08-17T02:11:18.530Z,51.70
2018-08-17T02:13:46.775Z,51.80
2018-08-17T02:16:16.024Z,51.80
2018-08-17T02:18:44.239Z,51.80
2018-08-17T02:21:12.731Z,52.20
2018-08-17T02:23:41.149Z,52.40
2018-08-17T02:26:09.760Z,52.40
2018-08-17T02:28:37.965Z,52.30
2018-08-17T02:31:06.193Z,52.70
2018-08-17T02:33:34.418Z,52.40
2018-08-17T02:36:02.877Z,52.30
2018-08-17T02:38:31.273Z,52.40
2018-08-17T02:40:59.762Z,52.40
2018-08-17T02:43:28.126Z,52.50
2018-08-17T02:45:56.649Z,52.40
2018-08-17T02:48:25.131Z,52.50
2018-08-17T02:50:53.440Z,52.40
2018-08-17T02:53:21.813Z,52.50
2018-08-17T02:55:50.175Z,52.40
2018-08-17T02:58:18.413Z,52.50
2018-08-17T03:00:53.543Z,53.20
2018-08-17T03:03:21.833Z,52.90
2018-08-17T03:05:50.053Z,53.30
2018-08-17T03:08:18.490Z,57.60
2018-08-17T03:10:47.385Z,53.30
2018-08-17T03:13:16.013Z,53.50
2018-08-17T03:15:44.249Z,53.50
2018-08-17T03:18:12.592Z,53.50
2018-08-17T03:20:40.734Z,53.50
2018-08-17T03:23:09.124Z,53.60
2018-08-17T03:25:37.378Z,53.70
2018-08-17T03:28:05.930Z,53.80
2018-08-17T03:30:34.200Z,53.90
2018-08-17T03:33:02.558Z,54.00
2018-08-17T03:35:31.126Z,54.40
2018-08-17T03:38:00.216Z,54.60
2018-08-17T03:40:28.709Z,54.90
2018-08-17T03:42:57.812Z,55.20
2018-08-17T03:45:26.057Z,55.10
2018-08-17T03:47:54.432Z,55.10
2018-08-17T03:50:22.677Z,55.30
2018-08-17T03:52:51.076Z,55.40
2018-08-17T03:55:19.248Z,55.80
2018-08-17T03:57:47.636Z,55.70
2018-08-17T04:00:20.377Z,56.00
2018-08-17T04:02:48.867Z,56.10
2018-08-17T04:05:17.087Z,56.30
2018-08-17T04:07:45.259Z,56.50
2018-08-17T04:10:13.476Z,56.60
2018-08-17T04:12:41.691Z,56.80
2018-08-17T04:15:10.335Z,56.80
2018-08-17T04:17:38.945Z,56.80
2018-08-17T04:20:08.350Z,56.90
2018-08-17T04:22:36.497Z,57.20
2018-08-17T04:25:04.975Z,57.60
2018-08-17T04:27:33.385Z,57.70
2018-08-17T04:30:03.803Z,57.80
2018-08-17T04:32:31.970Z,57.90
2018-08-17T04:35:00.194Z,57.80
2018-08-17T04:37:29.940Z,57.80
2018-08-17T04:39:58.216Z,57.60
2018-08-17T04:42:26.549Z,57.80
2018-08-17T04:44:54.914Z,57.70
2018-08-17T04:47:23.059Z,57.70
2018-08-17T04:49:51.741Z,57.80
2018-08-17T04:52:20.117Z,57.70
2018-08-17T04:54:48.650Z,57.80
2018-08-17T04:57:16.875Z,57.90
2018-08-17T04:59:46.042Z,58.10
2018-08-17T05:02:14.226Z,58.20
2018-08-17T05:04:43.175Z,58.20
2018-08-17T05:07:11.840Z,58.30
2018-08-17T05:09:40.206Z,58.40
2018-08-17T05:12:09.046Z,58.50
2018-08-17T05:14:37.443Z,58.60
2018-08-17T05:17:05.645Z,58.70
2018-08-17T05:19:33.861Z,58.70
2018-08-17T05:22:01.984Z,58.70
2018-08-17T05:24:31.072Z,58.50
2018-08-17T05:26:59.342Z,58.30
2018-08-17T05:29:27.838Z,58.20
2018-08-17T05:31:56.316Z,57.90
2018-08-17T05:34:25.601Z,57.90
2018-08-17T05:36:53.828Z,57.60
2018-08-17T05:39:22.047Z,57.30
2018-08-17T05:41:50.279Z,57.40
2018-08-17T05:44:18.540Z,57.00
2018-08-17T05:46:46.701Z,56.60
2018-08-17T05:49:14.889Z,55.60
2018-08-17T05:51:43.159Z,54.00
2018-08-17T05:54:11.412Z,52.00
2018-08-17T05:56:39.752Z,49.90
2018-08-17T05:59:08.020Z,47.90
2018-08-17T06:01:36.251Z,46.20
2018-08-17T06:04:04.859Z,45.20
2018-08-17T06:06:33.218Z,43.00
2018-08-17T06:09:05.659Z,41.70
2018-08-17T06:11:35.721Z,41.00
2018-08-17T06:14:05.207Z,40.40
2018-08-17T06:16:33.847Z,39.10
2018-08-17T06:19:02.154Z,39.00
2018-08-17T06:21:30.451Z,38.70
2018-08-17T06:23:58.686Z,38.50
2018-08-17T06:26:27.188Z,38.40
2018-08-17T06:28:55.344Z,37.00
2018-08-17T06:31:25.176Z,36.20
2018-08-17T06:33:53.524Z,35.20
2018-08-17T06:36:21.860Z,34.70
2018-08-17T06:38:50.155Z,35.30
2018-08-17T06:41:18.347Z,33.80
2018-08-17T06:43:46.677Z,32.40
2018-08-17T06:46:14.881Z,31.40
2018-08-17T06:48:43.304Z,30.90
2018-08-17T06:51:11.591Z,31.10
2018-08-17T06:53:39.701Z,30.00
2018-08-17T06:56:07.966Z,30.40
2018-08-17T06:58:36.230Z,29.80
2018-08-17T07:01:04.555Z,29.20
2018-08-17T07:03:32.774Z,30.00
2018-08-17T07:06:01.060Z,30.30
2018-08-17T07:08:29.961Z,29.50
2018-08-17T07:10:58.356Z,28.70
2018-08-17T07:13:27.237Z,28.50
2018-08-17T07:15:55.736Z,28.50
2018-08-17T07:18:23.900Z,28.10
2018-08-17T07:20:52.152Z,28.40
2018-08-17T07:23:20.295Z,27.40
2018-08-17T07:25:48.716Z,28.60
2018-08-17T07:28:17.335Z,27.50
2018-08-17T07:30:45.452Z,26.60
2018-08-17T07:33:13.776Z,26.30
2018-08-17T07:35:41.976Z,26.90
2018-08-17T07:38:10.194Z,26.20
2018-08-17T07:40:38.605Z,25.60
2018-08-17T07:43:07.458Z,25.30
2018-08-17T07:45:35.801Z,24.80
2018-08-17T07:48:04.303Z,24.50
2018-08-17T07:50:32.572Z,23.90
2018-08-17T07:53:01.263Z,23.90
2018-08-17T07:55:29.589Z,24.50
2018-08-17T07:58:00.835Z,24.60
2018-08-17T08:00:29.214Z,24.30
2018-08-17T08:02:57.593Z,24.30
2018-08-17T08:05:25.861Z,23.70
2018-08-17T08:07:54.118Z,23.70
2018-08-17T08:10:22.327Z,23.60
2018-08-17T08:12:50.975Z,24.70
2018-08-17T08:15:19.226Z,25.20
2018-08-17T08:17:47.464Z,24.60
2018-08-17T08:20:33.628Z,23.00
2018-08-17T08:23:20.813Z,21.90
2018-08-17T08:25:50.109Z,21.70
2018-08-17T08:28:20.533Z,21.30
2018-08-17T08:30:49.238Z,21.30
2018-08-17T08:33:18.089Z,20.90
2018-08-17T08:35:47.466Z,20.90
2018-08-17T08:38:16.114Z,19.90
2018-08-17T08:40:44.985Z,20.00
2018-08-17T08:43:14.203Z,19.10
2018-08-17T08:45:42.586Z,18.50
2018-08-17T08:48:11.028Z,18.20
2018-08-17T08:50:39.710Z,18.50
2018-08-17T08:53:09.842Z,18.80
2018-08-17T08:55:38.208Z,18.00
2018-08-17T08:58:07.520Z,17.10
2018-08-17T09:00:36.758Z,16.60
2018-08-17T09:03:06.431Z,17.00
2018-08-17T09:05:37.358Z,16.00
2018-08-17T09:08:06.394Z,15.80
2018-08-17T09:10:35.226Z,15.60
2018-08-17T09:13:04.317Z,15.20
2018-08-17T09:15:32.451Z,15.10
2018-08-17T09:18:00.843Z,15.00
2018-08-17T09:20:29.181Z,15.10
2018-08-17T09:22:57.627Z,15.40
2018-08-17T09:25:25.958Z,14.80
2018-08-17T09:27:54.290Z,14.90
2018-08-17T09:30:27.260Z,14.70
2018-08-17T09:32:55.745Z,14.50
2018-08-17T09:35:24.069Z,14.50
2018-08-17T09:37:52.673Z,14.20
2018-08-17T09:40:20.942Z,14.60
2018-08-17T09:42:49.272Z,14.20
2018-08-17T09:45:17.471Z,15.00
2018-08-17T09:47:45.626Z,14.70
2018-08-17T09:50:14.818Z,14.90
2018-08-17T09:52:43.421Z,14.90
2018-08-17T09:55:11.863Z,15.30
2018-08-17T09:57:40.087Z,15.80
2018-08-17T10:00:09.905Z,15.70
2018-08-17T10:02:43.876Z,14.20
2018-08-17T10:05:17.699Z,13.80
2018-08-17T10:07:51.731Z,14.50
2018-08-17T10:10:22.601Z,13.90
2018-08-17T10:12:51.665Z,13.20
2018-08-17T10:15:21.073Z,12.80
2018-08-17T10:17:49.505Z,13.30
2018-08-17T10:20:19.020Z,13.40
2018-08-17T10:22:47.248Z,13.60
2018-08-17T10:25:17.336Z,14.40
2018-08-17T10:27:47.464Z,14.50
2018-08-17T10:30:16.320Z,14.20
2018-08-17T10:32:49.360Z,14.30
2018-08-17T10:35:24.926Z,14.70
2018-08-17T10:37:55.258Z,14.70
2018-08-17T10:40:24.325Z,14.70
2018-08-17T10:42:52.795Z,15.70
2018-08-17T10:45:22.531Z,15.90
2018-08-17T10:47:51.270Z,14.90
2018-08-17T10:50:20.625Z,14.80
2018-08-17T10:52:50.736Z,14.40
2018-08-17T10:55:19.507Z,15.10
2018-08-17T10:57:47.889Z,15.10
2018-08-17T11:00:20.305Z,15.20
2018-08-17T11:02:48.752Z,16.60
2018-08-17T11:05:17.800Z,18.10
2018-08-17T11:07:47.230Z,18.90
2018-08-17T11:10:15.606Z,17.80
2018-08-17T11:12:45.127Z,17.30
2018-08-17T11:15:13.698Z,17.80
2018-08-17T11:17:43.848Z,18.70
2018-08-17T11:20:14.050Z,17.70
2018-08-17T11:22:42.840Z,16.50
2018-08-17T11:25:11.694Z,16.80
2018-08-17T11:27:40.000Z,17.10
2018-08-17T11:30:12.574Z,15.80
2018-08-17T11:32:42.004Z,15.30
2018-08-17T11:35:10.270Z,15.70
2018-08-17T11:37:38.649Z,17.40
2018-08-17T11:40:09.411Z,18.20
2018-08-17T11:42:40.925Z,17.80
2018-08-17T11:45:21.717Z,17.00
2018-08-17T11:47:50.574Z,16.20
2018-08-17T11:50:20.855Z,16.80
2018-08-17T11:52:54.399Z,17.00
2018-08-17T11:55:24.101Z,18.70
2018-08-17T11:57:52.643Z,19.60
2018-08-17T12:00:21.195Z,19.70
2018-08-17T12:02:49.405Z,19.10
2018-08-17T12:05:17.655Z,19.30
2018-08-17T12:07:46.526Z,19.20
2018-08-17T12:10:14.920Z,18.70
2018-08-17T12:12:43.935Z,17.80
2018-08-17T12:15:12.887Z,18.10
2018-08-17T12:17:41.106Z,18.40
2018-08-17T12:20:10.761Z,18.80
2018-08-17T12:22:39.300Z,19.00
2018-08-17T12:25:08.758Z,19.00
2018-08-17T12:27:36.969Z,19.60
2018-08-17T12:30:07.542Z,19.10
2018-08-17T12:32:36.590Z,19.30
2018-08-17T12:35:05.558Z,18.50
2018-08-17T12:37:34.284Z,17.40
2018-08-17T12:40:03.270Z,16.10
2018-08-17T12:42:37.148Z,16.00
2018-08-17T12:45:11.803Z,15.50
2018-08-17T12:47:41.314Z,14.90
2018-08-17T12:50:09.594Z,15.00
2018-08-17T12:52:37.974Z,15.40
2018-08-17T12:55:06.196Z,15.70
2018-08-17T12:57:41.119Z,16.00
2018-08-17T13:00:10.336Z,18.10
2018-08-17T13:02:38.932Z,18.70
2018-08-17T13:05:08.614Z,18.90
2018-08-17T13:07:38.329Z,17.70
2018-08-17T13:10:06.642Z,18.00
2018-08-17T13:12:35.357Z,18.10
2018-08-17T13:15:05.030Z,18.10
2018-08-17T13:17:41.140Z,17.90
2018-08-17T13:20:10.091Z,18.10
2018-08-17T13:22:40.441Z,18.90
2018-08-17T13:25:08.749Z,19.60
2018-08-17T13:27:37.566Z,20.20
2018-08-17T13:30:10.085Z,19.80
2018-08-17T13:32:38.329Z,19.90
2018-08-17T13:35:07.195Z,20.20
2018-08-17T13:37:35.815Z,20.40
2018-08-17T13:40:05.636Z,19.60
2018-08-17T13:42:35.615Z,18.50
2018-08-17T13:45:05.671Z,18.80
2018-08-17T13:47:36.530Z,20.70
2018-08-17T13:50:05.503Z,21.60
2018-08-17T13:52:34.511Z,22.20
2018-08-17T13:55:04.783Z,21.80
2018-08-17T13:57:35.059Z,21.80
2018-08-17T14:00:06.923Z,22.10
2018-08-17T14:02:40.239Z,22.50
2018-08-17T14:05:12.779Z,22.90
2018-08-17T14:07:44.843Z,23.40
2018-08-17T14:10:16.289Z,22.20
2018-08-17T14:12:49.407Z,21.90
2018-08-17T14:15:22.379Z,21.00
2018-08-17T14:17:51.840Z,20.50
2018-08-17T14:20:22.071Z,21.20
2018-08-17T14:22:53.078Z,22.30
2018-08-17T14:25:26.363Z,22.80
2018-08-17T14:27:58.397Z,23.10
2018-08-17T14:30:27.089Z,24.00
2018-08-17T14:32:56.416Z,24.90
2018-08-17T14:35:25.604Z,25.50
2018-08-17T14:37:54.641Z,26.00
2018-08-17T14:40:23.542Z,26.70
2018-08-17T14:42:52.187Z,27.40
2018-08-17T14:45:20.503Z,27.30
2018-08-17T14:47:48.966Z,27.10
2018-08-17T14:50:17.863Z,27.70
2018-08-17T14:52:46.806Z,28.60
2018-08-17T14:55:15.550Z,29.20
2018-08-17T14:57:44.632Z,29.90
2018-08-17T15:00:14.093Z,30.30
2018-08-17T15:02:42.454Z,30.00
2018-08-17T15:05:12.289Z,30.10
2018-08-17T15:07:40.980Z,30.60
2018-08-17T15:10:11.732Z,30.80
2018-08-17T15:12:41.498Z,31.10
2018-08-17T15:15:10.907Z,31.10
2018-08-17T15:17:40.495Z,31.30
2018-08-17T15:20:10.547Z,31.30
2018-08-17T15:22:38.876Z,31.40
2018-08-17T15:25:07.172Z,31.80
2018-08-17T15:27:35.473Z,31.30
2018-08-17T15:30:05.445Z,30.70
2018-08-17T15:32:33.629Z,30.80
2018-08-17T15:35:01.889Z,30.90
2018-08-17T15:37:31.044Z,31.30
2018-08-17T15:39:59.857Z,31.60
2018-08-17T15:42:28.338Z,32.80
2018-08-17T15:44:56.538Z,32.90
2018-08-17T15:47:24.832Z,32.80
2018-08-17T15:50:27.419Z,32.40
2018-08-17T15:52:55.836Z,31.90
2018-08-17T15:55:24.154Z,31.80
2018-08-17T15:57:52.398Z,32.50
2018-08-17T16:00:20.524Z,32.60
2018-08-17T16:02:48.726Z,32.70
2018-08-17T16:05:16.967Z,33.10
2018-08-17T16:07:45.205Z,33.20
2018-08-17T16:10:15.191Z,33.50
2018-08-17T16:12:43.913Z,33.90
2018-08-17T16:15:12.165Z,34.20
2018-08-17T16:17:40.328Z,34.40
2018-08-17T16:20:10.493Z,34.60
2018-08-17T16:22:39.048Z,34.40
2018-08-17T16:25:08.498Z,34.30
2018-08-17T16:27:36.810Z,34.40
2018-08-17T16:30:07.603Z,34.60
2018-08-17T16:32:35.848Z,35.00
2018-08-17T16:35:04.407Z,35.10
2018-08-17T16:37:32.842Z,35.20
2018-08-17T16:40:00.941Z,35.10
2018-08-17T16:42:35.028Z,35.30
2018-08-17T16:45:04.587Z,35.30
2018-08-17T16:47:32.718Z,35.40
2018-08-17T16:50:02.057Z,35.50
2018-08-17T16:52:30.289Z,35.70
2018-08-17T16:54:58.890Z,35.80
2018-08-17T16:57:27.410Z,36.00
2018-08-17T16:59:55.602Z,36.20
2018-08-17T17:02:23.852Z,36.40
2018-08-17T17:04:52.076Z,36.80
2018-08-17T17:07:25.152Z,37.20
2018-08-17T17:09:53.334Z,37.30
2018-08-17T17:12:21.501Z,37.60
2018-08-17T17:14:49.842Z,37.60
2018-08-17T17:17:18.010Z,37.90
2018-08-17T17:19:46.365Z,38.10
2018-08-17T17:22:14.510Z,38.50
2018-08-17T17:24:42.792Z,38.90
2018-08-17T17:27:10.978Z,39.30
2018-08-17T17:29:39.136Z,40.40
2018-08-17T17:32:07.316Z,41.10
2018-08-17T17:34:35.532Z,41.80
2018-08-17T17:37:03.762Z,42.10
2018-08-17T17:39:32.044Z,42.60
2018-08-17T17:42:00.593Z,43.40
2018-08-17T17:44:28.910Z,43.00
2018-08-17T17:46:57.132Z,43.20
2018-08-17T17:49:25.431Z,43.40
2018-08-17T17:51:53.658Z,43.60
2018-08-17T17:54:24.802Z,43.50
2018-08-17T17:57:01.145Z,43.60
2018-08-17T17:59:29.341Z,43.90
2018-08-17T18:01:57.598Z,43.90
2018-08-17T18:04:30.944Z,44.20
2018-08-17T18:07:00.021Z,44.20
2018-08-17T18:09:28.261Z,44.40
2018-08-17T18:11:56.996Z,44.40
2018-08-17T18:14:25.211Z,44.50
2018-08-17T18:16:53.978Z,44.60
2018-08-17T18:19:22.385Z,44.70
2018-08-17T18:21:50.546Z,45.00
2018-08-17T18:24:18.728Z,45.10
2018-08-17T18:26:49.073Z,45.20
2018-08-17T18:29:17.985Z,45.20
2018-08-17T18:31:46.223Z,45.40
2018-08-17T18:34:14.843Z,45.60
2018-08-17T18:36:43.070Z,45.50
2018-08-17T18:39:14.647Z,45.60
2018-08-17T18:41:42.899Z,45.60
2018-08-17T18:44:11.697Z,45.50
2018-08-17T18:46:39.959Z,45.60
2018-08-17T18:49:08.331Z,45.80
2018-08-17T18:51:36.485Z,45.80
2018-08-17T18:54:05.174Z,46.10
2018-08-17T18:56:33.517Z,46.00
2018-08-17T18:59:01.748Z,46.20
2018-08-17T19:01:29.893Z,46.20
2018-08-17T19:03:58.144Z,46.20
2018-08-17T19:06:26.364Z,46.30
2018-08-17T19:08:54.764Z,46.30
2018-08-17T19:11:23.008Z,46.40
2018-08-17T19:13:51.176Z,46.90
2018-08-17T19:16:19.389Z,48.10
2018-08-17T19:18:47.646Z,49.50
2018-08-17T19:21:15.906Z,50.40
2018-08-17T19:23:44.061Z,51.60
2018-08-17T19:26:12.312Z,52.50
2018-08-17T19:28:40.466Z,53.80
2018-08-17T19:31:08.672Z,54.40
2018-08-17T19:33:36.957Z,56.10
2018-08-17T19:36:05.237Z,57.50
2018-08-17T19:38:38.604Z,57.80
2018-08-17T19:41:06.888Z,58.20
2018-08-17T19:43:35.114Z,58.10
2018-08-17T19:46:03.358Z,57.30
2018-08-17T19:48:31.501Z,57.50
2018-08-17T19:50:59.766Z,55.80
2018-08-17T19:53:28.442Z,56.70
2018-08-17T19:55:56.902Z,59.00
2018-08-17T19:58:25.395Z,56.70
2018-08-17T20:00:53.644Z,57.90
2018-08-17T20:03:21.894Z,57.20
2018-08-17T20:05:50.822Z,58.00
2018-08-17T20:08:19.743Z,57.80
2018-08-17T20:10:48.098Z,58.30
2018-08-17T20:13:16.407Z,58.70
2018-08-17T20:15:44.589Z,58.50
2018-08-17T20:18:13.341Z,58.50
2018-08-17T20:20:41.618Z,58.00
2018-08-17T20:23:09.819Z,58.10
2018-08-17T20:25:38.750Z,58.40
2018-08-17T20:28:07.901Z,58.80
2018-08-17T20:30:36.165Z,57.90
2018-08-17T20:33:15.673Z,58.50
2018-08-17T20:35:43.865Z,58.30
2018-08-17T20:38:12.120Z,57.50
2018-08-17T20:40:40.310Z,58.40
2018-08-17T20:43:08.724Z,59.80
2018-08-17T20:45:36.808Z,60.60
2018-08-17T20:48:05.068Z,60.90
2018-08-17T20:50:33.258Z,60.60
2018-08-17T20:53:01.539Z,62.70
2018-08-17T20:55:29.729Z,64.20
2018-08-17T20:57:58.532Z,65.60
2018-08-17T21:00:28.542Z,66.80
2018-08-17T21:02:56.777Z,65.50
2018-08-17T21:05:25.388Z,65.30
2018-08-17T21:07:53.649Z,66.00
2018-08-17T21:10:21.905Z,66.30
2018-08-17T21:12:50.248Z,66.70
2018-08-17T21:15:18.742Z,66.80
2018-08-17T21:17:47.603Z,66.30
2018-08-17T21:20:15.813Z,66.30
2018-08-17T21:22:44.076Z,66.80
2018-08-17T21:25:12.337Z,66.90
2018-08-17T21:27:40.530Z,66.80
2018-08-17T21:30:09.268Z,66.00
2018-08-17T21:32:37.516Z,65.80
2018-08-17T21:35:06.742Z,66.00
2018-08-17T21:37:35.089Z,65.80
2018-08-17T21:40:04.198Z,66.00
2018-08-17T21:42:34.614Z,66.20
2018-08-17T21:45:02.852Z,65.60
2018-08-17T21:47:31.010Z,66.60
2018-08-17T21:50:09.701Z,66.00
2018-08-17T21:52:38.104Z,65.60
2018-08-17T21:55:06.446Z,65.50
2018-08-17T21:57:34.880Z,65.50
2018-08-17T22:00:04.399Z,65.50
2018-08-17T22:02:32.665Z,65.20
2018-08-17T22:05:00.884Z,64.90
2018-08-17T22:07:31.334Z,65.10
2018-08-17T22:09:59.600Z,64.80
2018-08-17T22:12:27.909Z,65.70
2018-08-17T22:14:56.362Z,65.50
2018-08-17T22:17:36.368Z,65.60
2018-08-17T22:20:08.046Z,65.50
2018-08-17T22:22:36.288Z,65.60
2018-08-17T22:25:13.404Z,65.50
2018-08-17T22:27:41.627Z,65.80
2018-08-17T22:30:24.798Z,65.50
2018-08-17T22:32:53.095Z,65.80
2018-08-17T22:35:22.214Z,65.90
2018-08-17T22:37:50.506Z,65.90
2018-08-17T22:40:18.701Z,66.00
2018-08-17T22:42:48.087Z,65.90
2018-08-17T22:45:16.523Z,66.00
2018-08-17T22:47:45.041Z,66.00
2018-08-17T22:50:13.273Z,66.10
2018-08-17T22:52:41.635Z,65.80
2018-08-17T22:55:10.052Z,66.50
2018-08-17T22:57:38.403Z,66.40
2018-08-17T23:00:24.414Z,66.90
2018-08-17T23:02:55.922Z,66.70
2018-08-17T23:05:28.515Z,66.50
2018-08-17T23:07:56.736Z,66.40
2018-08-17T23:10:26.102Z,66.50
2018-08-17T23:12:54.926Z,65.80
2018-08-17T23:15:23.480Z,66.40
2018-08-17T23:17:55.752Z,66.30
2018-08-17T23:20:29.653Z,66.10
2018-08-17T23:23:00.096Z,65.90
2018-08-17T23:25:28.801Z,66.60
2018-08-17T23:27:57.719Z,65.40
2018-08-17T23:30:26.135Z,65.20
2018-08-17T23:32:54.445Z,64.40
2018-08-17T23:35:22.720Z,64.20
2018-08-17T23:37:51.512Z,64.40
2018-08-17T23:40:20.599Z,64.30
2018-08-17T23:42:48.886Z,64.20
2018-08-17T23:45:17.810Z,64.10
2018-08-17T23:47:46.052Z,64.20
2018-08-17T23:50:15.140Z,64.30
2018-08-17T23:52:43.504Z,63.90
2018-08-17T23:55:17.772Z,64.10
2018-08-17T23:57:46.924Z,63.90
